TFM - Tactical Decision Aid (Experimental) INFO Settings
ID: Runway Winds: CIG/VIS Threshold: METAR Board: Map:

KEET - Alabaster-Shelby Cnty

Updated at: 2305 UTC 20 Feb 2018
Latest TAF at: 1739 UTC 20 Feb 2018

TAF Board

Time2253Z21/00Z21/01Z21/02Z21/03Z21/04Z21/05Z21/06Z21/07Z21/08Z21/09Z21/10Z21/11Z21/12Z
TypeOBSPRVLPRVLPRVLPRVLPRVLPRVLPRVLPRVLPRVLPRVLPRVLPRVLPRVL
VIS10>6>6>6>6>6>6>6>6>6>6>6>6>6
CIG90404040401212121288888
CoverBKNBKNBKNBKNBKNOVCOVCOVCOVCOVCOVCOVCOVCOVC
FltCatVFRVFRVFRVFRVFRMVFRMVFRMVFRMVFRIFRIFRIFRIFRIFR
WX----------------------------
WDir160160160160160160160160160170170170170170
WSpd116666555544444
WGst----------------------------
TAF
KEET 201739Z 2018/2118 17011G18KT P6SM BKN060
  FM210000 16006KT P6SM BKN040
  FM210400 16005KT P6SM BKN012 OVC025
  FM210800 17004KT P6SM OVC008
  FM211500 17008KT P6SM BKN015


METAR
KEET 202253Z AUTO 16011KT 10SM FEW044 BKN090 26/17 A3022 RMK AO2 SLP229 T02560172
KEET 202153Z AUTO 16009KT 10SM FEW049 BKN080 27/17 A3021 RMK AO2 SLP224 T02670172

TAF/METAR Board Legend

Potential Impact
  None Marginal Slight Moderate High
Visibility (sm) >5 3≤X≤5 2≤X<3 1.25≤X<2 <1.25
Ceiling (100 ft) >30 10≤X≤30 8≤X<10 4≤X<8 <4
Wind Speed (kt) <10 10≤X<20 20≤X<30 ≥30
Wind Gust (kt) <15 15≤X<25 25≤X<35 ≥35
Weather No Wx Reported VCTS -TS,-FZRA TS,FZRA +TS,+FZRA





Page loaded:  23:05 UTC  |   03:05 PM Pacific  |   04:05 PM Mountain  |   05:05 PM Central  |   06:05 PM Eastern